Alberton, Canada
Current Conditions -  °F | °C
As of 11:00 PM on Thursday 27 Nov 2014 (Local Time) from CYQM Reporting Station
Snow Showers Snow Showers  
Wind Chill: 11°   Ceiling: 2600
Heat Index: 23°   Visibility: 15mi
Dew Point: 18°   Wind: 13mph
Humidity: 80%   Direction: 290°WNW
Pressure: 29.94"   Gusts: NA
Location:  46.8°N, 64.07°W
Report Text: CYQM 280300Z 29011KT 15SM -SHSN OVC026 M05/M08 A2994 RMK SC8 SLP143
Loading
Personal Weather Stations






























Interactive Weather Map New forecast layout! Learn more

10-Day Weather Forecast

Advertisements
Track Severe Weather on mobile